Time;durP1;ratioP1;P1;durP2;ratioP2;P2;SDS_P1;SDS_P2;PMS_P1;PMS_P2;Temp;Humidity;BMP_temperature;BMP_pressure;BME280_temperature;BME280_humidity;BME280_pressure;Samples;Min_cycle;Max_cycle;Signal;HPM_P1;HPM_P2
2023/07/21 00:03:06;;;;;;;1.55;1.17;;;;;;;18.63;68.19;101180.28;6293086;28;20226;-67
2023/07/21 00:06:35;;;;;;;1.50;1.40;;;;;;;18.64;67.99;101177.34;6297488;28;20555;-67
2023/07/21 00:09:59;;;;;;;3.75;1.58;;;;;;;18.58;67.93;101178.09;6257994;28;20659;-67
2023/07/21 00:13:22;;;;;;;2.35;1.70;;;;;;;18.59;68.19;101176.19;6290112;28;20313;-67
2023/07/21 00:16:44;;;;;;;4.38;2.00;;;;;;;18.58;68.18;101175.34;6268918;28;20230;-68
2023/07/21 00:20:12;;;;;;;1.95;1.00;;;;;;;18.52;68.04;101173.34;6288184;28;20238;-67
2023/07/21 00:23:35;;;;;;;2.00;1.83;;;;;;;18.58;68.01;101180.81;6291393;28;20229;-67
2023/07/21 00:26:58;;;;;;;1.33;1.23;;;;;;;18.55;68.21;101178.44;6280366;28;20227;-66
2023/07/21 00:30:22;;;;;;;1.63;1.35;;;;;;;18.59;68.70;101171.56;6280947;28;20227;-67
2023/07/21 00:33:44;;;;;;;3.53;1.45;;;;;;;18.49;68.67;101175.56;6257271;28;20844;-67
2023/07/21 00:37:05;;;;;;;0.90;0.90;;;;;;;18.40;68.93;101169.28;6288638;28;20235;-68
2023/07/21 00:40:30;;;;;;;2.42;1.40;;;;;;;18.35;69.14;101164.38;6281844;28;20242;-68
2023/07/21 00:43:51;;;;;;;2.00;1.40;;;;;;;18.30;69.59;101164.03;6279131;28;20234;-68
2023/07/21 00:47:15;;;;;;;1.98;0.85;;;;;;;18.21;69.99;101167.00;6261036;28;20231;-67
2023/07/21 00:50:45;;;;;;;2.50;1.00;;;;;;;18.11;70.76;101163.63;6260345;28;20231;-67
2023/07/21 00:54:06;;;;;;;2.05;1.42;;;;;;;18.00;71.41;101167.59;6281077;28;20222;-67
2023/07/21 00:57:29;;;;;;;1.83;1.50;;;;;;;17.95;71.80;101160.97;6264747;28;20243;-67
2023/07/21 01:00:58;;;;;;;1.70;1.08;;;;;;;17.85;72.45;101155.75;6280073;28;20233;-67
2023/07/21 01:04:26;;;;;;;1.10;0.98;;;;;;;17.85;72.57;101160.34;6283340;28;20237;-68
2023/07/21 01:07:50;;;;;;;2.75;1.48;;;;;;;17.67;73.01;101154.28;6273101;28;20255;-67
2023/07/21 01:11:14;;;;;;;3.88;1.13;;;;;;;17.53;73.60;101155.84;6280182;28;20227;-67
2023/07/21 01:14:37;;;;;;;3.88;1.75;;;;;;;17.52;74.03;101152.25;6261838;28;20230;-68
2023/07/21 01:18:00;;;;;;;1.98;1.35;;;;;;;17.49;74.49;101155.34;6278680;28;20234;-68
2023/07/21 01:21:36;;;;;;;1.10;0.82;;;;;;;17.45;74.68;101151.22;6267019;28;20238;-67
2023/07/21 01:25:09;;;;;;;2.47;1.55;;;;;;;17.36;75.30;101148.66;6275101;28;20239;-67
2023/07/21 01:28:32;;;;;;;2.85;1.60;;;;;;;17.37;75.46;101151.25;6280197;28;20257;-66
2023/07/21 01:31:58;;;;;;;2.20;1.80;;;;;;;17.40;75.46;101148.16;6295530;28;20223;-67
2023/07/21 01:35:19;;;;;;;1.55;1.45;;;;;;;17.36;76.01;101148.66;6276520;28;20243;-67
2023/07/21 01:38:42;;;;;;;3.97;1.40;;;;;;;17.35;76.13;101145.13;6283844;28;20294;-67
2023/07/21 01:42:06;;;;;;;2.00;1.73;;;;;;;17.31;76.31;101138.28;6310677;28;20234;-67
2023/07/21 01:45:29;;;;;;;1.95;1.35;;;;;;;17.26;76.42;101134.38;6280527;28;20246;-67
2023/07/21 01:48:53;;;;;;;1.55;1.45;;;;;;;17.15;76.89;101127.41;6283097;28;20317;-67
2023/07/21 01:52:16;;;;;;;1.75;1.48;;;;;;;17.10;77.49;101121.66;6300121;28;20234;-66
2023/07/21 01:55:53;;;;;;;;;;;;;;;;;;;;;
2023/07/21 01:59:20;;;;;;;1.40;1.30;;;;;;;17.11;77.88;101126.06;6267030;28;20235;-66
2023/07/21 02:02:47;;;;;;;2.55;1.77;;;;;;;17.10;78.05;101124.38;6265859;28;20329;-66
2023/07/21 02:06:15;;;;;;;2.53;1.50;;;;;;;17.00;78.18;101134.56;6287833;28;20227;-67
2023/07/21 02:09:38;;;;;;;2.15;1.65;;;;;;;17.07;78.36;101124.72;6267543;28;20226;-67
2023/07/21 02:12:59;;;;;;;2.25;1.42;;;;;;;17.04;78.23;101118.75;6297467;28;20307;-67
2023/07/21 02:16:22;;;;;;;3.70;2.03;;;;;;;17.02;78.36;101118.91;6244514;28;20243;-67
2023/07/21 02:19:44;;;;;;;1.73;1.20;;;;;;;17.07;78.68;101119.25;6295369;28;20596;-66
2023/07/21 02:23:10;;;;;;;3.00;1.67;;;;;;;17.07;78.67;101102.91;6299250;28;20234;-67
2023/07/21 02:26:32;;;;;;;2.42;2.00;;;;;;;16.96;78.82;101100.53;6284338;28;20714;-67
2023/07/21 02:29:56;;;;;;;3.05;1.45;;;;;;;16.92;78.92;101099.19;6274375;28;20238;-67
2023/07/21 02:33:19;;;;;;;3.22;1.55;;;;;;;16.92;79.19;101096.47;6262226;28;20254;-66
2023/07/21 02:36:41;;;;;;;2.33;1.23;;;;;;;16.97;79.35;101096.81;6297760;28;20314;-66
2023/07/21 02:40:06;;;;;;;1.27;1.17;;;;;;;16.81;79.58;101101.41;6271910;28;20231;-67
2023/07/21 02:43:28;;;;;;;2.25;1.77;;;;;;;16.51;80.20;101094.75;6285247;28;20486;-67
2023/07/21 02:46:49;;;;;;;2.40;1.88;;;;;;;16.59;80.00;101092.03;6306149;28;20253;-65
2023/07/21 02:50:17;;;;;;;2.35;2.13;;;;;;;16.69;80.09;101092.72;6264605;28;20880;-67
2023/07/21 02:53:38;;;;;;;3.80;2.22;;;;;;;16.31;80.39;101083.31;6283330;28;20638;-67
2023/07/21 02:57:06;;;;;;;2.60;1.80;;;;;;;16.60;80.29;101085.59;6284965;28;20223;-67
2023/07/21 03:00:30;;;;;;;2.33;1.60;;;;;;;16.66;80.82;101083.03;6257343;28;20567;-66
2023/07/21 03:04:00;;;;;;;1.97;1.40;;;;;;;16.75;80.43;101073.00;6302366;28;20257;-66
2023/07/21 03:07:27;;;;;;;1.80;1.70;;;;;;;16.71;80.29;101079.78;6283486;28;20517;-67
2023/07/21 03:10:58;;;;;;;3.40;1.77;;;;;;;16.96;80.13;101075.19;6262315;28;20227;-67
2023/07/21 03:14:21;;;;;;;2.33;2.13;;;;;;;17.05;80.30;101077.72;6290021;28;20584;-67
2023/07/21 03:17:43;;;;;;;2.80;2.20;;;;;;;17.03;80.26;101077.03;6285749;28;20243;-66
2023/07/21 03:21:05;;;;;;;2.35;1.63;;;;;;;17.00;80.32;101074.66;6277314;28;20223;-67
2023/07/21 03:24:30;;;;;;;2.92;1.83;;;;;;;17.10;80.88;101069.88;6240271;28;20496;-67
2023/07/21 03:27:52;;;;;;;2.00;1.58;;;;;;;17.11;80.77;101063.41;6267353;28;20227;-67
2023/07/21 03:31:17;;;;;;;6.60;2.28;;;;;;;17.05;81.04;101061.38;6285760;28;20955;-67
2023/07/21 03:34:50;;;;;;;2.92;1.98;;;;;;;17.07;81.38;101062.06;6296103;28;20225;-67
2023/07/21 03:38:12;;;;;;;2.92;2.33;;;;;;;17.10;81.70;101069.88;6267012;28;20761;-66
2023/07/21 03:41:35;;;;;;;3.58;2.92;;;;;;;17.15;81.87;101064.75;6280626;28;20238;-66
2023/07/21 03:44:58;;;;;;;3.85;2.47;;;;;;;17.12;81.95;101067.84;6293164;28;20321;-66
2023/07/21 03:48:20;;;;;;;2.90;1.50;;;;;;;16.89;82.58;101072.31;6290077;28;20279;-66
2023/07/21 03:51:41;;;;;;;1.85;1.75;;;;;;;17.02;82.62;101077.22;6271073;28;20258;-67
2023/07/21 03:55:08;;;;;;;4.15;2.28;;;;;;;16.99;82.87;101072.09;6279221;28;21051;-66
2023/07/21 03:58:30;;;;;;;2.97;2.08;;;;;;;16.87;83.41;101070.78;6287171;28;20234;-66
2023/07/21 04:01:55;;;;;;;4.47;2.53;;;;;;;16.88;83.39;101065.16;6284102;28;20227;-67
2023/07/21 04:09:00;;;;;;;3.97;2.03;;;;;;;16.67;84.74;101051.19;6257010;28;20248;-67
2023/07/21 04:12:21;;;;;;;4.65;3.25;;;;;;;16.52;85.40;101051.03;6296666;28;20235;-67
2023/07/21 04:15:44;;;;;;;1.88;1.77;;;;;;;16.57;85.45;101056.84;6277972;28;20242;-67
2023/07/21 04:19:05;;;;;;;2.58;1.85;;;;;;;16.53;85.82;101046.44;6292073;28;20226;-67
2023/07/21 04:22:28;;;;;;;3.60;2.10;;;;;;;16.26;86.32;101049.47;6290107;28;20952;-66
2023/07/21 04:25:52;;;;;;;1.73;1.33;;;;;;;16.10;87.22;101054.91;6295623;28;20354;-67
2023/07/21 04:29:15;;;;;;;3.00;2.45;;;;;;;15.88;88.18;101054.50;6281010;28;21020;-66
2023/07/21 04:32:42;;;;;;;3.95;1.75;;;;;;;16.11;88.46;101059.31;6285943;28;20302;-67
2023/07/21 04:36:04;;;;;;;2.55;2.17;;;;;;;16.12;87.85;101053.72;6235732;28;20602;-67
2023/07/21 04:39:25;;;;;;;2.10;1.73;;;;;;;15.91;87.76;101046.03;6256960;28;20583;-66
2023/07/21 04:42:47;;;;;;;1.70;1.53;;;;;;;16.07;88.01;101053.34;6292869;28;20314;-66
2023/07/21 04:46:12;;;;;;;2.33;1.80;;;;;;;16.18;87.59;101052.19;6282403;28;20325;-66
2023/07/21 04:49:36;;;;;;;2.77;2.00;;;;;;;16.25;87.88;101064.94;6279743;28;20229;-67
2023/07/21 04:53:01;;;;;;;1.93;1.50;;;;;;;16.43;87.02;101060.22;6293801;28;20271;-66
2023/07/21 04:56:28;;;;;;;1.87;1.40;;;;;;;16.34;86.33;101068.53;6265689;28;20588;-66
2023/07/21 04:59:50;;;;;;;3.33;2.37;;;;;;;16.71;85.71;101063.44;6290163;28;20234;-67
2023/07/21 05:03:15;;;;;;;3.07;2.37;;;;;;;16.91;85.11;101063.94;6264039;28;20361;-67
2023/07/21 05:06:58;;;;;;;2.57;1.40;;;;;;;16.99;83.90;101059.34;6277136;28;20551;-66
2023/07/21 05:10:19;;;;;;;3.87;2.43;;;;;;;16.88;83.53;101058.84;6248559;28;20636;-67
2023/07/21 05:13:45;;;;;;;5.37;3.03;;;;;;;17.03;83.45;101060.69;6284335;28;20230;-66
2023/07/21 05:17:16;;;;;;;3.80;2.50;;;;;;;17.05;82.46;101053.19;6272975;28;20239;-66
2023/07/21 05:21:01;;;;;;;2.73;1.97;;;;;;;17.22;82.18;101052.16;6264643;28;20239;-66
2023/07/21 05:24:36;;;;;;;5.40;2.77;;;;;;;17.08;82.09;101054.75;6262043;28;20569;-65
2023/07/21 05:27:59;;;;;;;5.63;2.27;;;;;;;17.32;81.95;101060.97;6283430;28;20231;-66
2023/07/21 05:31:22;;;;;;;4.87;2.37;;;;;;;17.52;81.29;101053.28;6253750;28;20266;-66
2023/07/21 05:34:51;;;;;;;6.87;2.40;;;;;;;17.72;80.50;101059.13;6266666;28;20329;-67
2023/07/21 05:42:14;;;;;;;3.90;2.53;;;;;;;17.82;78.99;101049.72;6229786;28;20348;-67
2023/07/21 05:49:16;;;;;;;3.67;1.63;;;;;;;17.47;78.12;101042.84;6243938;28;20626;-68
2023/07/21 05:52:38;;;;;;;2.15;1.35;;;;;;;17.55;77.84;101045.59;6257765;28;20223;-68
2023/07/21 05:56:00;;;;;;;1.73;1.05;;;;;;;17.49;77.13;101038.13;6243120;28;20224;-67
2023/07/21 05:59:45;;;;;;;4.10;1.20;;;;;;;18.00;76.04;101033.91;6277749;28;20247;-68
2023/07/21 06:03:07;;;;;;;2.10;1.90;;;;;;;18.01;76.04;101034.75;6271273;28;20227;-68
2023/07/21 06:06:29;;;;;;;2.10;1.50;;;;;;;17.94;75.82;101033.81;6249032;28;20252;-69
2023/07/21 06:10:03;;;;;;;1.98;1.50;;;;;;;17.18;75.30;101053.53;6240332;28;20234;-67
2023/07/21 06:13:31;;;;;;;1.30;1.17;;;;;;;17.11;75.95;101041.59;6257498;28;20327;-68
2023/07/21 06:17:10;;;;;;;1.77;1.67;;;;;;;17.54;75.16;101041.13;6281527;28;20557;-69
2023/07/21 06:20:32;;;;;;;1.20;0.97;;;;;;;17.87;73.95;101041.84;6270144;28;20235;-68
2023/07/21 06:23:55;;;;;;;2.67;1.40;;;;;;;17.63;73.99;101036.50;6273682;28;20227;-69
2023/07/21 06:27:17;;;;;;;6.83;2.07;;;;;;;18.12;73.72;101037.09;6281276;28;20246;-67
2023/07/21 06:30:38;;;;;;;1.77;1.45;;;;;;;17.76;73.92;101036.78;6282431;28;20321;-69
2023/07/21 06:34:02;;;;;;;3.88;1.33;;;;;;;18.15;73.93;101033.97;6270811;28;20554;-68
2023/07/21 06:37:46;;;;;;;3.42;1.67;;;;;;;18.47;73.00;101033.78;6253887;28;20562;-70
2023/07/21 06:41:17;;;;;;;1.92;1.40;;;;;;;18.36;73.53;101029.56;6268065;28;22002;-69
2023/07/21 06:44:48;;;;;;;1.90;1.52;;;;;;;17.57;74.39;101039.94;6247116;28;20597;-66
2023/07/21 06:52:11;;;;;;;3.25;1.90;;;;;;;18.50;73.22;101021.66;6138068;23;20255;-66
2023/07/21 06:55:36;;;;;;;1.60;1.50;;;;;;;18.78;72.31;101025.47;6121713;28;20423;-67
2023/07/21 07:13:49;;;;;;;2.85;1.60;;;;;;;19.04;70.76;101015.81;6114396;28;20231;-67
2023/07/21 07:17:22;;;;;;;1.88;1.33;;;;;;;19.22;70.02;101020.03;6082129;28;20267;-68
2023/07/21 07:24:35;;;;;;;1.40;1.13;;;;;;;19.15;69.69;101014.47;6122310;28;20243;-66
2023/07/21 07:36:23;;;;;;;2.00;1.80;;;;;;;20.00;66.19;101014.78;6135951;28;20230;-67
2023/07/21 07:39:45;;;;;;;2.35;1.52;;;;;;;20.30;65.61;101009.00;6091390;28;20717;-66
2023/07/21 07:43:08;;;;;;;3.38;1.63;;;;;;;20.08;65.26;101011.91;6112628;28;20515;-66
2023/07/21 07:46:30;;;;;;;9.23;1.92;;;;;;;20.30;66.06;101014.50;6116897;28;20243;-67
2023/07/21 07:49:51;;;;;;;3.42;1.58;;;;;;;21.11;64.90;101011.16;6142656;28;20247;-65
2023/07/21 07:53:15;;;;;;;1.27;1.17;;;;;;;20.63;64.54;101012.88;6121354;28;20326;-66
2023/07/21 07:56:38;;;;;;;1.67;0.95;;;;;;;20.58;64.02;101001.69;6136060;28;20246;-67
2023/07/21 07:59:59;;;;;;;1.73;1.17;;;;;;;19.48;65.06;101012.25;6112855;28;20605;-67
2023/07/21 08:03:21;;;;;;;1.83;1.73;;;;;;;19.84;65.39;101008.50;6115981;28;20615;-67
2023/07/21 08:06:42;;;;;;;3.58;1.40;;;;;;;20.07;64.71;101011.06;6096071;28;20322;-67
2023/07/21 08:10:07;;;;;;;1.55;1.17;;;;;;;20.04;65.29;101008.72;6123351;28;20239;-66
2023/07/21 08:13:29;;;;;;;1.98;1.48;;;;;;;20.36;64.25;101016.44;6125243;28;20238;-68
2023/07/21 08:16:51;;;;;;;1.38;1.00;;;;;;;20.18;63.55;100998.75;6137405;28;20226;-67
2023/07/21 08:20:16;;;;;;;1.83;1.42;;;;;;;20.54;63.15;100994.91;6124921;28;20325;-67
2023/07/21 08:23:37;;;;;;;1.50;1.30;;;;;;;20.39;63.49;100999.63;6110650;28;20231;-67
2023/07/21 08:27:02;;;;;;;3.90;1.42;;;;;;;19.87;64.55;100997.16;6116135;28;20240;-67
2023/07/21 08:41:22;;;;;;;1.85;1.48;;;;;;;20.26;64.08;100987.69;6290310;28;20328;-67
2023/07/21 08:44:44;;;;;;;2.83;1.33;;;;;;;20.21;63.74;100993.78;6285960;28;20234;-66
2023/07/21 08:48:07;;;;;;;1.58;1.45;;;;;;;20.29;62.41;100988.16;6294498;28;20363;-67
2023/07/21 08:55:06;;;;;;;2.13;1.60;;;;;;;20.70;60.25;100977.31;6277131;28;20227;-67
2023/07/21 08:58:31;;;;;;;2.70;1.30;;;;;;;20.94;59.22;100979.63;6287583;28;20233;-66
2023/07/21 09:01:53;;;;;;;2.38;1.50;;;;;;;21.17;59.56;100977.44;6272570;28;20608;-67
2023/07/21 09:05:18;;;;;;;4.53;2.03;;;;;;;20.36;60.93;100975.34;6277458;28;20231;-66
2023/07/21 09:12:16;;;;;;;1.63;1.20;;;;;;;21.12;59.70;100970.91;6266517;28;20306;-66
2023/07/21 09:15:39;;;;;;;3.25;2.10;;;;;;;21.10;59.84;100964.78;6294845;28;20271;-67
2023/07/21 09:19:00;;;;;;;2.53;2.33;;;;;;;21.42;59.90;100964.09;6268003;28;20546;-67
2023/07/21 09:22:26;;;;;;;1.40;1.30;;;;;;;21.67;59.09;100968.00;6301208;28;20249;-67
2023/07/21 09:25:51;;;;;;;3.10;1.88;;;;;;;20.89;60.29;100965.66;6304333;28;20231;-67
2023/07/21 09:29:18;;;;;;;1.92;1.52;;;;;;;21.52;57.79;100950.84;6292869;28;20246;-67
2023/07/21 09:32:41;;;;;;;2.30;1.30;;;;;;;21.50;58.07;100958.44;6273467;28;20242;-67
2023/07/21 09:36:06;;;;;;;1.60;1.50;;;;;;;20.39;59.63;100966.75;6298398;27;20484;-66
2023/07/21 09:39:27;;;;;;;3.28;1.50;;;;;;;20.66;59.38;100965.06;6298114;27;20550;-67
2023/07/21 09:46:25;;;;;;;1.88;1.40;;;;;;;22.37;56.33;100955.69;6289556;27;20248;-67
2023/07/21 09:49:48;;;;;;;4.25;1.63;;;;;;;21.57;54.64;100958.47;6282437;28;20231;-65
2023/07/21 09:53:13;;;;;;;3.45;1.90;;;;;;;21.93;53.29;100948.03;6277213;28;20290;-66
2023/07/21 09:56:42;;;;;;;1.45;1.35;;;;;;;21.85;53.31;100948.22;6285701;28;20227;-68
2023/07/21 10:00:12;;;;;;;2.03;1.40;;;;;;;21.18;55.87;100948.16;6270454;28;20242;-66
2023/07/21 10:03:36;;;;;;;5.13;1.77;;;;;;;21.84;54.53;100928.16;6314954;27;20220;-67
2023/07/21 10:06:58;;;;;;;2.20;1.27;;;;;;;20.22;57.10;100937.94;6288462;28;20537;-66
2023/07/21 10:10:23;;;;;;;2.13;1.50;;;;;;;20.64;57.01;100937.88;6261540;28;20373;-66
2023/07/21 10:13:47;;;;;;;3.58;2.08;;;;;;;20.90;56.11;100942.72;6267243;28;20313;-66
2023/07/21 10:17:10;;;;;;;1.40;1.30;;;;;;;21.72;56.38;100931.69;6279665;28;20285;-65
2023/07/21 10:20:50;;;;;;;3.25;1.75;;;;;;;22.20;54.32;100927.78;6308589;28;20721;-67
2023/07/21 10:24:22;;;;;;;1.63;1.52;;;;;;;21.63;54.24;100938.44;6301478;28;20230;-67
2023/07/21 10:28:10;;;;;;;2.90;1.52;;;;;;;21.58;54.81;100928.06;6277859;28;20325;-66
2023/07/21 10:31:38;;;;;;;1.40;1.00;;;;;;;20.88;54.94;100931.06;6287925;28;20238;-66
2023/07/21 10:35:00;;;;;;;1.20;1.10;;;;;;;21.34;54.43;100912.16;6263050;28;20538;-67
2023/07/21 10:38:24;;;;;;;1.05;0.98;;;;;;;22.43;52.85;100916.38;6279128;28;20231;-67
2023/07/21 10:41:45;;;;;;;4.15;1.25;;;;;;;22.65;51.92;100920.63;6256257;28;20239;-69
2023/07/21 10:45:10;;;;;;;2.17;1.98;;;;;;;22.65;51.72;100905.00;6290503;28;20584;-67
2023/07/21 10:48:31;;;;;;;3.13;1.55;;;;;;;22.66;50.37;100903.06;6285079;28;20226;-64
2023/07/21 10:55:32;;;;;;;1.98;1.33;;;;;;;22.55;51.01;100910.03;6283535;28;20695;-65
2023/07/21 10:59:01;;;;;;;2.30;1.25;;;;;;;22.46;50.62;100915.97;6309031;28;20368;-66
2023/07/21 11:02:33;;;;;;;3.20;1.15;;;;;;;21.36;52.02;100921.84;6278963;28;20234;-65
2023/07/21 11:09:35;;;;;;;1.45;1.10;;;;;;;21.48;52.04;100900.19;6287587;28;20231;-66
2023/07/21 11:13:02;;;;;;;1.58;1.40;;;;;;;22.37;52.99;100912.56;6255749;28;20222;-68
2023/07/21 11:16:24;;;;;;;1.20;0.95;;;;;;;22.24;50.56;100910.69;6293432;28;20250;-67
2023/07/21 11:19:46;;;;;;;1.85;1.15;;;;;;;22.60;50.84;100907.53;6267033;28;20273;-68
2023/07/21 11:23:07;;;;;;;0.80;0.80;;;;;;;23.67;49.19;100896.78;6278693;28;20235;-69
2023/07/21 11:26:29;;;;;;;2.33;1.48;;;;;;;23.51;49.49;100897.31;6276294;28;20223;-67
2023/07/21 11:29:55;;;;;;;2.63;1.73;;;;;;;23.20;49.26;100898.03;6273052;28;20227;-68
2023/07/21 11:33:16;;;;;;;3.30;0.90;;;;;;;23.27;49.30;100906.28;6269847;28;20253;-68
2023/07/21 11:36:37;;;;;;;3.25;1.45;;;;;;;22.38;48.87;100899.69;6296358;28;20227;-68
2023/07/21 11:39:59;;;;;;;1.15;1.05;;;;;;;22.27;50.00;100891.03;6258376;28;20219;-67
2023/07/21 11:43:20;;;;;;;2.47;2.28;;;;;;;22.59;50.32;100891.25;6294357;28;20226;-68
2023/07/21 11:46:54;;;;;;;1.73;1.00;;;;;;;22.45;49.83;100892.28;6279433;28;20505;-67
2023/07/21 11:50:16;;;;;;;0.80;0.70;;;;;;;21.96;49.30;100888.06;6286132;28;20333;-68
2023/07/21 11:53:45;;;;;;;0.70;0.60;;;;;;;22.77;50.24;100899.66;6293751;28;20217;-68
2023/07/21 11:57:08;;;;;;;1.85;1.15;;;;;;;23.86;49.90;100898.59;6261425;28;20310;-69
2023/07/21 12:00:29;;;;;;;1.67;1.10;;;;;;;23.05;49.22;100895.56;6286959;28;20239;-70
2023/07/21 12:03:53;;;;;;;2.28;1.15;;;;;;;22.67;50.52;100889.13;6272744;28;20506;-70
2023/07/21 12:07:17;;;;;;;2.63;0.80;;;;;;;22.96;50.86;100880.38;6264448;28;20337;-67
2023/07/21 12:10:38;;;;;;;1.15;0.93;;;;;;;23.42;49.53;100879.34;6254982;28;20322;-68
2023/07/21 12:14:00;;;;;;;1.58;1.00;;;;;;;23.02;47.71;100882.25;6263884;28;20229;-68
2023/07/21 12:17:21;;;;;;;2.83;1.23;;;;;;;22.74;48.37;100869.84;6269494;28;20639;-69
2023/07/21 12:20:48;;;;;;;1.02;0.93;;;;;;;22.68;48.74;100873.44;6262766;28;20235;-67
2023/07/21 12:27:51;;;;;;;2.85;1.10;;;;;;;22.98;48.45;100875.50;6273549;28;20230;-69
2023/07/21 12:31:13;;;;;;;1.50;1.02;;;;;;;23.70;46.81;100866.03;6285958;28;20250;-67
2023/07/21 12:34:35;;;;;;;0.95;0.95;;;;;;;24.18;46.48;100866.34;6259410;28;20227;-68
2023/07/21 12:38:03;;;;;;;2.15;1.60;;;;;;;23.10;47.47;100880.31;6298220;28;20225;-68
2023/07/21 12:41:26;;;;;;;2.45;1.10;;;;;;;23.51;46.51;100872.53;6255561;28;20230;-68
2023/07/21 12:44:48;;;;;;;0.80;0.80;;;;;;;23.11;46.53;100866.34;6268254;28;20358;-68
2023/07/21 12:48:10;;;;;;;2.20;0.85;;;;;;;24.18;45.51;100871.84;6276627;28;20325;-68
2023/07/21 12:55:09;;;;;;;2.67;1.23;;;;;;;24.53;48.46;100865.59;6273370;28;20326;-69
2023/07/21 12:58:32;;;;;;;5.05;1.67;;;;;;;24.60;48.70;100871.91;6299783;28;20625;-69
2023/07/21 13:01:53;;;;;;;1.45;1.20;;;;;;;24.92;48.57;100871.81;6258809;28;20224;-68
2023/07/21 13:05:16;;;;;;;2.83;1.42;;;;;;;27.55;45.25;100868.06;6267955;28;20242;-68
2023/07/21 13:08:45;;;;;;;0.93;0.70;;;;;;;29.48;41.01;100867.22;6274080;28;20853;-67
2023/07/21 13:12:11;;;;;;;0.95;0.85;;;;;;;30.43;38.66;100864.59;6262592;28;20262;-68
2023/07/21 13:15:33;;;;;;;0.82;0.80;;;;;;;31.68;37.15;100852.44;6294025;28;20320;-68
2023/07/21 13:18:55;;;;;;;1.80;1.27;;;;;;;31.69;36.48;100849.38;6286251;28;20242;-68
2023/07/21 13:22:16;;;;;;;0.82;0.82;;;;;;;32.93;35.33;100852.44;6285338;28;20510;-67
2023/07/21 13:25:37;;;;;;;1.52;0.80;;;;;;;32.47;35.42;100852.81;6270484;28;20228;-67
2023/07/21 13:29:00;;;;;;;0.80;0.80;;;;;;;30.74;37.01;100835.84;6292383;28;20234;-67
2023/07/21 13:32:22;;;;;;;0.70;0.57;;;;;;;31.70;36.12;100839.06;6270976;28;20223;-67
2023/07/21 13:35:45;;;;;;;0.70;0.70;;;;;;;31.87;35.84;100843.28;6314073;28;20238;-68
2023/07/21 13:39:08;;;;;;;0.82;0.70;;;;;;;31.95;35.05;100842.75;6264801;28;20352;-68
2023/07/21 13:42:29;;;;;;;0.77;0.52;;;;;;;31.22;35.54;100848.66;6270616;28;21357;-69
2023/07/21 13:45:52;;;;;;;0.98;0.73;;;;;;;32.47;33.70;100844.44;6269181;28;20231;-68
2023/07/21 13:49:13;;;;;;;0.60;0.60;;;;;;;32.06;34.31;100827.72;6273339;28;20237;-69
2023/07/21 13:52:39;;;;;;;1.88;1.10;;;;;;;33.19;33.17;100828.03;6266994;28;20664;-68
2023/07/21 13:56:02;;;;;;;0.75;0.75;;;;;;;31.21;35.38;100831.09;6299021;28;20843;-70
2023/07/21 13:59:24;;;;;;;0.90;0.90;;;;;;;27.38;39.61;100835.84;6297390;28;20238;-68
2023/07/21 14:02:47;;;;;;;1.67;1.48;;;;;;;25.57;42.76;100828.72;6270085;28;20234;-68
2023/07/21 14:06:12;;;;;;;1.00;0.88;;;;;;;25.46;43.35;100827.59;6293867;28;20239;-67
2023/07/21 14:09:36;;;;;;;2.22;1.08;;;;;;;25.08;45.39;100824.25;6300683;28;20234;-68
2023/07/21 14:12:58;;;;;;;1.55;1.15;;;;;;;26.94;43.15;100820.78;6302121;28;20229;-69
2023/07/21 14:16:22;;;;;;;1.85;0.75;;;;;;;28.66;40.88;100810.91;6296127;28;20235;-68
2023/07/21 14:19:45;;;;;;;3.67;0.90;;;;;;;28.81;40.07;100809.16;6273893;28;20227;-68
2023/07/21 14:23:10;;;;;;;2.25;0.70;;;;;;;28.38;40.96;100809.91;6280476;28;20230;-68
2023/07/21 14:26:32;;;;;;;0.77;0.77;;;;;;;26.64;38.81;100807.09;6280235;27;20228;-69
2023/07/21 14:29:53;;;;;;;0.60;0.50;;;;;;;25.18;40.80;100806.09;6264142;28;20230;-68
2023/07/21 14:33:15;;;;;;;1.10;0.70;;;;;;;24.92;42.33;100809.19;6290288;28;20290;-69
2023/07/21 14:36:37;;;;;;;1.13;1.00;;;;;;;24.88;42.42;100801.59;6287179;28;20620;-68
2023/07/21 14:40:01;;;;;;;1.40;1.02;;;;;;;24.34;42.81;100800.50;6271014;28;20875;-68
2023/07/21 14:43:23;;;;;;;0.70;0.70;;;;;;;24.44;42.70;100811.00;6274324;28;20322;-68
2023/07/21 14:46:45;;;;;;;3.50;3.20;;;;;;;25.22;42.14;100801.78;6287178;28;20235;-67
2023/07/21 14:50:07;;;;;;;2.40;1.70;;;;;;;25.38;42.54;100805.81;6268060;28;20857;-66
2023/07/21 14:53:30;;;;;;;1.40;1.30;;;;;;;25.22;42.61;100809.25;6295333;28;20241;-68
2023/07/21 14:56:52;;;;;;;2.35;2.15;;;;;;;24.88;43.99;100798.84;6275746;28;20234;-68
2023/07/21 15:00:20;;;;;;;1.10;1.00;;;;;;;25.56;44.32;100797.50;6279983;28;20238;-68
2023/07/21 15:03:42;;;;;;;1.60;1.50;;;;;;;24.98;42.09;100802.75;6292675;28;20249;-68
2023/07/21 15:07:07;;;;;;;2.33;2.13;;;;;;;24.52;43.14;100807.94;6270887;28;20223;-67
2023/07/21 15:10:31;;;;;;;2.65;0.80;;;;;;;24.20;43.15;100809.13;6311849;28;20560;-67
2023/07/21 15:13:53;;;;;;;5.85;5.25;;;;;;;24.34;43.61;100805.16;6289758;28;20659;-67
2023/07/21 15:17:14;;;;;;;6.60;5.75;;;;;;;24.51;44.80;100806.25;6289911;28;20235;-67
2023/07/21 15:20:36;;;;;;;5.00;3.80;;;;;;;25.49;44.20;100802.28;6283457;28;20688;-67
2023/07/21 15:23:58;;;;;;;13.85;11.20;;;;;;;26.37;41.34;100800.38;6294825;28;20230;-67
2023/07/21 15:31:08;;;;;;;9.98;2.55;;;;;;;25.37;41.12;100799.44;6244732;28;20307;-67
2023/07/21 15:34:38;;;;;;;3.70;2.25;;;;;;;24.75;42.41;100802.63;6261496;28;20679;-68
2023/07/21 15:49:30;;;;;;;4.45;4.05;;;;;;;25.10;42.57;100800.88;6272881;28;20226;-67
2023/07/21 15:52:54;;;;;;;11.55;10.35;;;;;;;25.63;42.05;100792.72;6263026;28;20234;-68
2023/07/21 15:56:15;;;;;;;9.32;7.70;;;;;;;25.22;42.44;100800.97;6255605;28;20588;-68
2023/07/21 15:59:37;;;;;;;11.55;10.02;;;;;;;25.14;43.00;100798.50;6275779;28;20234;-67
2023/07/21 16:02:59;;;;;;;1.60;1.50;;;;;;;24.59;42.79;100801.25;6281882;28;20302;-66
2023/07/21 16:06:22;;;;;;;1.88;1.35;;;;;;;24.58;43.10;100799.59;6294741;28;20230;-67
2023/07/21 16:09:43;;;;;;;1.60;1.27;;;;;;;24.19;44.44;100800.00;6287559;28;20479;-68
2023/07/21 16:13:05;;;;;;;0.77;0.77;;;;;;;24.23;43.12;100801.25;6275846;28;20242;-68
2023/07/21 16:16:27;;;;;;;1.38;1.08;;;;;;;24.47;44.19;100797.59;6301878;28;20223;-67
2023/07/21 16:19:49;;;;;;;1.02;1.00;;;;;;;24.12;45.17;100798.38;6310581;28;20314;-66
2023/07/21 16:23:12;;;;;;;6.32;5.75;;;;;;;24.23;46.21;100805.91;6288217;28;20225;-68
2023/07/21 16:26:53;;;;;;;1.30;1.20;;;;;;;24.01;46.19;100793.59;6290495;28;20662;-68
2023/07/21 16:30:18;;;;;;;6.63;5.70;;;;;;;24.19;46.68;100785.38;6275176;28;20223;-68
2023/07/21 16:33:40;;;;;;;7.22;5.75;;;;;;;24.56;46.00;100781.59;6286457;28;20293;-66
2023/07/21 16:37:01;;;;;;;5.63;3.45;;;;;;;25.03;45.23;100782.75;6279695;28;20227;-67
2023/07/21 16:40:23;;;;;;;2.30;2.10;;;;;;;25.16;45.57;100777.03;6282723;28;20570;-66
2023/07/21 16:43:45;;;;;;;3.13;2.58;;;;;;;24.82;45.52;100778.56;6313347;28;20506;-66
2023/07/21 16:47:06;;;;;;;6.30;5.70;;;;;;;24.18;47.35;100787.28;6278995;28;20223;-65
2023/07/21 16:50:27;;;;;;;5.20;4.60;;;;;;;23.63;48.24;100785.44;6286427;28;20232;-66
2023/07/21 16:53:52;;;;;;;4.78;3.97;;;;;;;23.32;48.60;100786.25;6285775;28;20510;-66
2023/07/21 16:57:19;;;;;;;9.65;8.40;;;;;;;23.23;48.88;100784.81;6280645;28;20243;-65
2023/07/21 17:00:53;;;;;;;9.48;8.05;;;;;;;23.18;49.79;100790.13;6275777;28;20493;-66
2023/07/21 17:04:14;;;;;;;6.93;4.78;;;;;;;23.32;49.81;100789.00;6275591;28;20237;-66
2023/07/21 17:07:36;;;;;;;3.33;3.03;;;;;;;23.16;50.12;100786.75;6274424;28;20589;-66
2023/07/21 17:10:59;;;;;;;2.58;1.95;;;;;;;22.92;51.14;100785.63;6305591;28;20243;-66
2023/07/21 17:14:23;;;;;;;1.35;1.25;;;;;;;22.84;51.24;100787.78;6272541;28;20238;-66
2023/07/21 17:17:45;;;;;;;2.10;1.13;;;;;;;22.67;51.81;100803.06;6275048;28;20232;-66
2023/07/21 17:21:08;;;;;;;2.13;1.92;;;;;;;22.42;52.78;100796.53;6296549;28;20235;-67
2023/07/21 17:24:33;;;;;;;2.95;2.50;;;;;;;22.35;53.45;100790.22;6279334;28;20727;-67
2023/07/21 17:27:55;;;;;;;3.13;2.42;;;;;;;22.06;52.40;100797.03;6272720;28;20245;-66